West Palm Beach, FL (33406)

3:58 AM EDT on July 26, 2016 (GMT -0400)
LCS Police HQ / EOC | | Change Station

Elev 30 ft 26.65 °N, 80.08 °W | Updated 2 seconds ago

Partly Cloudy
Partly Cloudy
-42.0 °F
Feels Like -55 °F
N
3.1
Wind Variable Wind from South
Gusts 3.9 mph

Today
High -- | Low -- °F
--% Chance of Precip.
Yesterday
High -- | Low -- °F
Precip. -- in
Pressure 30.06 in
Visibility 10.0 miles
Clouds Few 2300 ft
Windchill -55 °F
Dew Point -45.8 °F
Humidity 80%
Rainfall 0.00 in
Snow Depth Not available.
6:42 AM 8:11 PM
Waning Gibbous, 57% visible
METAR KPBI 260753Z 12006KT 10SM FEW023 29/24 A3006 RMK AO2 SLP177 T02890244
Pressure 30.06 in
Visibility 10.0 miles
Clouds Few 2300 ft
Windchill -55 °F
Dew Point -45.8 °F
Humidity 80%
Rainfall 0.00 in
Snow Depth Not available.
6:42 AM 8:11 PM
Waning Gibbous, 57% visible
METAR KPBI 260753Z 12006KT 10SM FEW023 29/24 A3006 RMK AO2 SLP177 T02890244

10-Day Weather Forecast

Almanac

Astronomy

Jul. 26, 2016 Rise Set
Actual Time
Civil Twilight
Nautical Twilight
Astronomical Twilight
Moon
Length of Visible Light
Length of Day
Tomorrow will be .
, % of the Moon is Illuminated

Today's Extremes

State Highs State Lows

Community

WunderPhotos

Upload Photos

1,927,551 photos uploaded!

WunderBlog® & News

Nearby

Air Quality

  Air Quality AQ Index Pollutant
Not available.

Snow Depth

Station Depth Elevation

Earthquake Activity

City Distance Mag. Time & Date
Minimum magnitude displayed is 2.5.

Coastal Water Temperatures

Place Temperature

Stations

Nearby Weather Stations

Station Location Temp. Windchill Dew Point Humidity Wind Precip. Elev Updated Type
                   

Watches & Warnings

There are currently no watches in effect.